createdAt,value
2017-09-11T00:00:05.120Z,0
2017-09-11T00:01:05.895Z,0
2017-09-11T00:02:06.692Z,0
2017-09-11T00:03:07.480Z,0
2017-09-11T00:04:08.279Z,0
2017-09-11T00:05:09.262Z,0
2017-09-11T00:06:10.051Z,0
2017-09-11T00:07:10.796Z,0
2017-09-11T00:08:11.590Z,0
2017-09-11T00:09:12.323Z,0
2017-09-11T00:10:13.369Z,0
2017-09-11T00:11:14.170Z,0
2017-09-11T00:12:14.903Z,0
2017-09-11T00:13:15.707Z,0
2017-09-11T00:14:16.426Z,0
2017-09-11T00:15:17.399Z,0
2017-09-11T00:16:18.140Z,0
2017-09-11T00:17:18.881Z,0
2017-09-11T00:18:19.602Z,0
2017-09-11T00:19:20.336Z,0
2017-09-11T00:20:21.405Z,0
2017-09-11T00:21:22.191Z,0
2017-09-11T00:22:22.984Z,0
2017-09-11T00:23:23.733Z,0
2017-09-11T00:24:24.523Z,0
2017-09-11T00:25:25.242Z,0
2017-09-11T00:26:25.966Z,0
2017-09-11T00:27:27.133Z,0
2017-09-11T00:28:27.864Z,0
2017-09-11T00:29:28.669Z,0
2017-09-11T00:30:29.395Z,0
2017-09-11T00:31:30.123Z,0
2017-09-11T00:32:31.053Z,0
2017-09-11T00:33:31.785Z,0
2017-09-11T00:34:32.579Z,0
2017-09-11T00:35:33.308Z,0
2017-09-11T00:36:34.134Z,0
2017-09-11T00:37:36.087Z,0
2017-09-11T00:38:36.839Z,0
2017-09-11T00:39:37.575Z,0
2017-09-11T00:40:38.380Z,0
2017-09-11T00:41:39.109Z,0
2017-09-11T00:42:40.194Z,0
2017-09-11T00:43:40.923Z,0
2017-09-11T00:44:41.652Z,0
2017-09-11T00:45:42.394Z,0
2017-09-11T00:46:43.136Z,0
2017-09-11T00:47:44.315Z,0
2017-09-11T00:48:45.113Z,0
2017-09-11T00:49:45.870Z,0
2017-09-11T00:50:46.593Z,0
2017-09-11T00:51:47.392Z,0
2017-09-11T00:52:48.413Z,0
2017-09-11T00:53:49.214Z,0
2017-09-11T00:54:50.007Z,0
2017-09-11T00:55:50.719Z,0
2017-09-11T00:56:51.455Z,0
2017-09-11T00:57:52.438Z,0
2017-09-11T00:58:53.115Z,0
2017-09-11T00:59:53.909Z,0
2017-09-11T01:00:54.640Z,0
2017-09-11T01:01:55.474Z,0
2017-09-11T01:02:56.269Z,0
2017-09-11T01:03:57.203Z,0
2017-09-11T01:04:57.928Z,0
2017-09-11T01:05:58.655Z,0
2017-09-11T01:06:59.384Z,0
2017-09-11T01:08:00.274Z,0
2017-09-11T01:09:01.424Z,0
2017-09-11T01:10:02.228Z,0
2017-09-11T01:11:02.973Z,0
2017-09-11T01:12:03.700Z,0
2017-09-11T01:13:04.428Z,0
2017-09-11T01:14:05.448Z,0
2017-09-11T01:15:06.182Z,0
2017-09-11T01:16:06.920Z,0
2017-09-11T01:17:07.728Z,0
2017-09-11T01:18:08.520Z,0
2017-09-11T01:19:09.639Z,0
2017-09-11T01:20:10.371Z,0
2017-09-11T01:21:11.161Z,0
2017-09-11T01:22:11.892Z,0
2017-09-11T01:23:12.691Z,0
2017-09-11T01:24:13.773Z,0
2017-09-11T01:25:14.498Z,0
2017-09-11T01:26:15.218Z,0
2017-09-11T01:27:15.945Z,0
2017-09-11T01:28:16.683Z,0
2017-09-11T01:29:17.706Z,0
2017-09-11T01:30:18.492Z,0
2017-09-11T01:31:19.249Z,0
2017-09-11T01:32:19.985Z,0
2017-09-11T01:33:20.793Z,0
2017-09-11T01:34:21.824Z,0
2017-09-11T01:35:22.647Z,0
2017-09-11T01:36:23.318Z,0
2017-09-11T01:37:24.047Z,0
2017-09-11T01:38:24.853Z,0
2017-09-11T01:39:25.595Z,0
2017-09-11T01:40:26.666Z,0
2017-09-11T01:41:27.465Z,0
2017-09-11T01:42:28.276Z,0
2017-09-11T01:43:29.012Z,0
2017-09-11T01:44:29.730Z,0
2017-09-11T01:45:30.892Z,0
2017-09-11T01:46:31.623Z,0
2017-09-11T01:47:32.433Z,0
2017-09-11T01:48:33.157Z,0
2017-09-11T01:49:33.970Z,0
2017-09-11T01:50:35.103Z,0
2017-09-11T01:51:35.834Z,0
2017-09-11T01:52:36.559Z,0
2017-09-11T01:53:37.303Z,0
2017-09-11T01:54:38.035Z,0
2017-09-11T01:55:38.764Z,0
2017-09-11T01:56:39.516Z,0
2017-09-11T01:57:40.295Z,0
2017-09-11T01:58:41.278Z,0
2017-09-11T01:59:42.041Z,0
2017-09-11T02:00:42.863Z,0
2017-09-11T02:01:43.590Z,0
2017-09-11T02:02:44.318Z,0
2017-09-11T02:03:45.438Z,0
2017-09-11T02:04:46.161Z,0
2017-09-11T02:05:46.892Z,0
2017-09-11T02:06:47.609Z,0
2017-09-11T02:07:48.400Z,0
2017-09-11T02:08:49.485Z,0
2017-09-11T02:09:50.294Z,0
2017-09-11T02:10:51.052Z,0
2017-09-11T02:11:51.846Z,0
2017-09-11T02:12:52.586Z,0
2017-09-11T02:13:53.653Z,0
2017-09-11T02:14:54.374Z,0
2017-09-11T02:15:55.103Z,0
2017-09-11T02:16:55.844Z,0
2017-09-11T02:17:56.616Z,0
2017-09-11T02:18:57.826Z,0
2017-09-11T02:19:58.571Z,0
2017-09-11T02:20:59.352Z,0
2017-09-11T02:22:00.087Z,0
2017-09-11T02:23:00.874Z,0
2017-09-11T02:24:02.069Z,0
2017-09-11T02:25:02.870Z,0
2017-09-11T02:26:03.601Z,0
2017-09-11T02:27:04.333Z,0
2017-09-11T02:28:05.059Z,0
2017-09-11T02:29:06.198Z,0
2017-09-11T02:30:06.941Z,0
2017-09-11T02:31:07.721Z,0
2017-09-11T02:32:08.451Z,0
2017-09-11T02:33:09.170Z,0
2017-09-11T02:34:09.892Z,0
2017-09-11T02:35:10.610Z,0
2017-09-11T02:36:11.351Z,0
2017-09-11T02:37:12.493Z,0
2017-09-11T02:38:13.275Z,0
2017-09-11T02:39:14.037Z,0
2017-09-11T02:40:14.757Z,0
2017-09-11T02:41:15.469Z,0
2017-09-11T02:42:16.539Z,0
2017-09-11T02:43:17.280Z,0
2017-09-11T02:44:18.002Z,0
2017-09-11T02:45:18.725Z,0
2017-09-11T02:46:19.451Z,0
2017-09-11T02:47:20.535Z,0
2017-09-11T02:48:21.253Z,0
2017-09-11T02:49:21.970Z,0
2017-09-11T02:50:22.680Z,0
2017-09-11T02:51:23.474Z,0
2017-09-11T02:52:24.491Z,0
2017-09-11T02:53:25.293Z,0
2017-09-11T02:54:26.009Z,0
2017-09-11T02:55:26.743Z,0
2017-09-11T02:56:27.468Z,0
2017-09-11T02:57:28.503Z,0
2017-09-11T02:58:29.223Z,0
2017-09-11T02:59:29.956Z,0
2017-09-11T03:00:30.694Z,0
2017-09-11T03:01:31.419Z,0
2017-09-11T03:02:32.154Z,0
2017-09-11T03:03:32.883Z,0
2017-09-11T03:04:33.604Z,0
2017-09-11T03:05:34.326Z,0
2017-09-11T03:06:35.062Z,0
2017-09-11T03:07:36.222Z,0
2017-09-11T03:08:36.939Z,0
2017-09-11T03:09:37.671Z,0
2017-09-11T03:10:38.449Z,0
2017-09-11T03:11:39.189Z,0
2017-09-11T03:12:40.309Z,0
2017-09-11T03:13:41.038Z,0
2017-09-11T03:14:41.821Z,0
2017-09-11T03:15:42.557Z,0
2017-09-11T03:16:43.291Z,0
2017-09-11T03:17:44.057Z,0
2017-09-11T03:18:44.823Z,0
2017-09-11T03:19:45.539Z,0
2017-09-11T03:20:46.264Z,0
2017-09-11T03:21:47.077Z,0
2017-09-11T03:22:48.135Z,0
2017-09-11T03:23:48.869Z,0
2017-09-11T03:24:49.609Z,0
2017-09-11T03:25:50.420Z,0
2017-09-11T03:26:51.139Z,0
2017-09-11T03:27:52.279Z,0
2017-09-11T03:28:53.007Z,0
2017-09-11T03:29:53.739Z,0
2017-09-11T03:30:54.490Z,0
2017-09-11T03:31:55.254Z,0
2017-09-11T03:32:56.341Z,0
2017-09-11T03:33:57.119Z,0
2017-09-11T03:34:57.849Z,0
2017-09-11T03:35:58.594Z,0
2017-09-11T03:36:59.312Z,0
2017-09-11T03:38:00.248Z,0
2017-09-11T03:39:01.021Z,0
2017-09-11T03:40:01.759Z,0
2017-09-11T03:41:02.550Z,0
2017-09-11T03:42:03.282Z,0
2017-09-11T03:43:04.273Z,0
2017-09-11T03:44:05.019Z,0
2017-09-11T03:45:05.828Z,0
2017-09-11T03:46:06.589Z,0
2017-09-11T03:47:07.388Z,0
2017-09-11T03:48:08.532Z,0
2017-09-11T03:49:09.261Z,0
2017-09-11T03:50:10.061Z,0
2017-09-11T03:51:10.847Z,0
2017-09-11T03:52:11.644Z,0
2017-09-11T03:53:12.670Z,0
2017-09-11T03:54:13.408Z,0
2017-09-11T03:55:14.130Z,0
2017-09-11T03:56:14.865Z,0
2017-09-11T03:57:15.667Z,0
2017-09-11T03:58:16.396Z,0
2017-09-11T03:59:17.127Z,0
2017-09-11T04:00:18.297Z,0
2017-09-11T04:01:19.013Z,0
2017-09-11T04:02:19.816Z,0
2017-09-11T04:03:20.551Z,0
2017-09-11T04:04:21.287Z,0
2017-09-11T04:05:22.368Z,0
2017-09-11T04:06:23.034Z,0
2017-09-11T04:07:23.798Z,0
2017-09-11T04:08:24.530Z,0
2017-09-11T04:09:25.354Z,0
2017-09-11T04:10:26.434Z,0
2017-09-11T04:11:27.167Z,0
2017-09-11T04:12:27.894Z,0
2017-09-11T04:13:28.661Z,0
2017-09-11T04:14:29.450Z,0
2017-09-11T04:15:30.654Z,0
2017-09-11T04:16:31.384Z,0
2017-09-11T04:17:32.113Z,0
2017-09-11T04:18:32.878Z,0
2017-09-11T04:19:33.657Z,0
2017-09-11T04:20:34.708Z,0
2017-09-11T04:21:35.457Z,0
2017-09-11T04:22:36.240Z,0
2017-09-11T04:23:37.031Z,0
2017-09-11T04:24:37.827Z,0
2017-09-11T04:25:38.964Z,0
2017-09-11T04:26:39.689Z,0
2017-09-11T04:27:40.430Z,0
2017-09-11T04:28:41.219Z,0
2017-09-11T04:29:41.946Z,0
2017-09-11T04:30:43.378Z,4
2017-09-11T04:31:44.103Z,4
2017-09-11T04:32:44.834Z,4
2017-09-11T04:33:45.563Z,4
2017-09-11T04:34:46.285Z,4
2017-09-11T04:35:47.368Z,4
2017-09-11T04:36:48.103Z,4
2017-09-11T04:37:48.828Z,8
2017-09-11T04:38:49.564Z,8
2017-09-11T04:39:50.297Z,12
2017-09-11T04:40:51.443Z,12
2017-09-11T04:41:52.245Z,16
2017-09-11T04:42:53.049Z,12
2017-09-11T04:43:53.778Z,20
2017-09-11T04:44:54.554Z,24
2017-09-11T04:45:55.610Z,24
2017-09-11T04:46:56.413Z,24
2017-09-11T04:47:57.141Z,24
2017-09-11T04:48:57.882Z,32
2017-09-11T04:49:58.628Z,36
2017-09-11T04:50:59.411Z,48
2017-09-11T04:52:00.531Z,44
2017-09-11T04:53:01.262Z,48
2017-09-11T04:54:01.994Z,60
2017-09-11T04:55:02.812Z,68
2017-09-11T04:56:03.539Z,92
2017-09-11T04:57:04.570Z,112
2017-09-11T04:58:05.305Z,136
2017-09-11T04:59:06.103Z,152
2017-09-11T05:00:06.823Z,176
2017-09-11T05:01:07.555Z,236
2017-09-11T05:02:08.752Z,240
2017-09-11T05:03:09.472Z,204
2017-09-11T05:04:10.192Z,180
2017-09-11T05:05:10.922Z,196
2017-09-11T05:06:11.663Z,240
2017-09-11T05:07:12.459Z,292
2017-09-11T05:08:13.259Z,264
2017-09-11T05:09:14.300Z,324
2017-09-11T05:10:15.117Z,408
2017-09-11T05:11:15.881Z,432
2017-09-11T05:12:16.639Z,484
2017-09-11T05:13:17.382Z,528
2017-09-11T05:14:18.420Z,452
2017-09-11T05:15:19.209Z,364
2017-09-11T05:16:20.001Z,480
2017-09-11T05:17:20.743Z,540
2017-09-11T05:18:21.481Z,544
2017-09-11T05:19:22.459Z,488
2017-09-11T05:20:23.190Z,508
2017-09-11T05:21:23.989Z,432
2017-09-11T05:22:24.724Z,392
2017-09-11T05:23:25.472Z,448
2017-09-11T05:24:26.210Z,492
2017-09-11T05:25:26.944Z,652
2017-09-11T05:26:27.724Z,764
2017-09-11T05:27:28.759Z,984
2017-09-11T05:28:29.501Z,1136
2017-09-11T05:29:30.275Z,1536
2017-09-11T05:30:31.012Z,1752
2017-09-11T05:31:31.745Z,1576
2017-09-11T05:32:32.829Z,1576
2017-09-11T05:33:33.568Z,1588
2017-09-11T05:34:34.305Z,1560
2017-09-11T05:35:35.043Z,1292
2017-09-11T05:36:35.773Z,1264
2017-09-11T05:37:36.800Z,1372
2017-09-11T05:38:37.529Z,1592
2017-09-11T05:39:38.253Z,1640
2017-09-11T05:40:39.054Z,1800
2017-09-11T05:41:39.872Z,2104
2017-09-11T05:42:40.900Z,2104
2017-09-11T05:43:41.628Z,1544
2017-09-11T05:44:42.414Z,1508
2017-09-11T05:45:43.224Z,1604
2017-09-11T05:46:44.026Z,1712
2017-09-11T05:47:45.197Z,2168
2017-09-11T05:48:45.926Z,1784
2017-09-11T05:49:46.693Z,1316
2017-09-11T05:50:47.433Z,1320
2017-09-11T05:51:48.170Z,1340
2017-09-11T05:52:49.266Z,1336
2017-09-11T05:53:50.007Z,1372
2017-09-11T05:54:50.774Z,1332
2017-09-11T05:55:51.564Z,1944
2017-09-11T05:56:52.346Z,2208
2017-09-11T05:57:53.492Z,2064
2017-09-11T05:58:54.215Z,2080
2017-09-11T05:59:55.013Z,2652
2017-09-11T06:00:55.753Z,2644
2017-09-11T06:01:56.483Z,2660
2017-09-11T06:02:57.617Z,3088
2017-09-11T06:03:58.428Z,2336
2017-09-11T06:04:59.169Z,1912
2017-09-11T06:05:59.912Z,1820
2017-09-11T06:07:00.593Z,2160
2017-09-11T06:08:01.642Z,2200
2017-09-11T06:09:02.450Z,1964
2017-09-11T06:10:03.249Z,1268
2017-09-11T06:11:04.054Z,1532
2017-09-11T06:12:04.843Z,1972
2017-09-11T06:13:05.760Z,1920
2017-09-11T06:14:06.500Z,1992
2017-09-11T06:15:07.237Z,2044
2017-09-11T06:16:07.974Z,1912
2017-09-11T06:17:08.739Z,2088
2017-09-11T06:18:09.669Z,1920
2017-09-11T06:19:10.403Z,1944
2017-09-11T06:20:11.114Z,1888
2017-09-11T06:21:11.859Z,1656
2017-09-11T06:22:12.614Z,1392
2017-09-11T06:23:13.738Z,1344
2017-09-11T06:24:14.469Z,1448
2017-09-11T06:25:15.223Z,1716
2017-09-11T06:26:16.022Z,1532
2017-09-11T06:27:16.759Z,1392
2017-09-11T06:28:17.703Z,2572
2017-09-11T06:29:18.429Z,3440
2017-09-11T06:30:19.169Z,3096
2017-09-11T06:31:19.989Z,2988
2017-09-11T06:32:20.749Z,3140
2017-09-11T06:33:21.969Z,3092
2017-09-11T06:34:22.704Z,2760
2017-09-11T06:35:23.394Z,2764
2017-09-11T06:36:24.191Z,2264
2017-09-11T06:37:24.919Z,2432
2017-09-11T06:38:25.998Z,2828
2017-09-11T06:39:26.727Z,2328
2017-09-11T06:40:27.520Z,2508
2017-09-11T06:41:28.338Z,2604
2017-09-11T06:42:29.087Z,2560
2017-09-11T06:43:29.820Z,2480
2017-09-11T06:44:30.570Z,2272
2017-09-11T06:45:31.360Z,2760
2017-09-11T06:46:32.091Z,2668
2017-09-11T06:47:32.901Z,3200
2017-09-11T06:48:33.951Z,4268
2017-09-11T06:49:34.718Z,4792
2017-09-11T06:50:35.456Z,5244
2017-09-11T06:51:36.287Z,5692
2017-09-11T06:52:37.068Z,6212
2017-09-11T06:53:38.145Z,5820
2017-09-11T06:54:38.882Z,5552
2017-09-11T06:55:39.623Z,4832
2017-09-11T06:56:41.211Z,4632
2017-09-11T06:58:45.715Z,5880
2017-09-11T06:59:47.646Z,4476
2017-09-11T07:00:49.493Z,3792
2017-09-11T07:01:50.777Z,3304
2017-09-11T07:02:52.971Z,2936
2017-09-11T07:03:53.980Z,2840
2017-09-11T07:04:55.577Z,2828
2017-09-11T07:05:56.319Z,2936
2017-09-11T07:06:57.059Z,3200
2017-09-11T07:07:58.128Z,3464
2017-09-11T07:08:59.098Z,3704
2017-09-11T07:10:00.133Z,3940
2017-09-11T07:11:00.854Z,3784
2017-09-11T07:12:01.588Z,3140
2017-09-11T07:13:02.754Z,3248
2017-09-11T07:14:03.536Z,2776
2017-09-11T07:15:04.291Z,2308
2017-09-11T07:16:05.018Z,3028
2017-09-11T07:19:57.282Z,4220
2017-09-11T07:20:58.061Z,4864
2017-09-11T07:21:58.784Z,5504
2017-09-11T07:22:59.518Z,5240
2017-09-11T07:24:00.324Z,4760
2017-09-11T07:25:01.519Z,6228
2017-09-11T07:26:02.326Z,7000
2017-09-11T07:27:03.062Z,8192
2017-09-11T07:28:04.304Z,9076
2017-09-11T07:29:05.556Z,10724
2017-09-11T07:30:06.676Z,12948
2017-09-11T07:31:07.392Z,13988
2017-09-11T07:32:08.214Z,12656
2017-09-11T07:33:08.960Z,9748
2017-09-11T07:34:10.057Z,9832
2017-09-11T07:35:10.738Z,12288
2017-09-11T07:36:11.537Z,12092
2017-09-11T07:37:12.313Z,9948
2017-09-11T07:38:13.052Z,12728
2017-09-11T07:39:14.087Z,14092
2017-09-11T07:40:14.934Z,14596
2017-09-11T07:41:15.632Z,15420
2017-09-11T07:42:16.369Z,14740
2017-09-11T07:43:17.130Z,12788
2017-09-11T07:44:18.098Z,12988
2017-09-11T07:45:18.821Z,14792
2017-09-11T07:46:19.569Z,15388
2017-09-11T07:47:20.280Z,14292
2017-09-11T07:48:21.000Z,14944
2017-09-11T07:49:21.752Z,15800
2017-09-11T07:50:22.538Z,13876
2017-09-11T07:51:23.268Z,12756
2017-09-11T07:52:24.074Z,10984
2017-09-11T07:53:24.865Z,9536
2017-09-11T07:54:25.969Z,11724
2017-09-11T07:55:26.750Z,12836
2017-09-11T07:56:27.538Z,12972
2017-09-11T07:57:28.270Z,12244
2017-09-11T07:58:29.067Z,11888
2017-09-11T07:59:30.234Z,11268
2017-09-11T08:00:30.981Z,9468
2017-09-11T08:01:31.711Z,8852
2017-09-11T08:02:32.565Z,9312
2017-09-11T08:03:33.368Z,9332
2017-09-11T08:04:34.418Z,8796
2017-09-11T08:05:35.138Z,8748
2017-09-11T08:06:35.871Z,9516
2017-09-11T08:07:36.620Z,9808
2017-09-11T08:08:37.365Z,11060
2017-09-11T08:09:38.545Z,9836
2017-09-11T08:10:39.285Z,9428
2017-09-11T08:11:40.109Z,12044
2017-09-11T08:12:40.921Z,11768
2017-09-11T08:13:41.657Z,13544
2017-09-11T08:14:42.800Z,13800
2017-09-11T08:15:43.571Z,13652
2017-09-11T08:16:44.370Z,12428
2017-09-11T08:17:45.180Z,9876
2017-09-11T08:18:45.921Z,9052
2017-09-11T08:19:46.924Z,11348
2017-09-11T08:20:47.653Z,15924
2017-09-11T08:21:48.517Z,11128
2017-09-11T08:22:49.285Z,9324
2017-09-11T08:23:50.017Z,10592
2017-09-11T08:24:51.260Z,12672
2017-09-11T08:25:52.095Z,11776
2017-09-11T08:26:52.815Z,10576
2017-09-11T08:27:53.627Z,13128
2017-09-11T08:28:54.391Z,12984
2017-09-11T08:29:55.617Z,12548
2017-09-11T08:30:56.428Z,13120
2017-09-11T08:31:57.174Z,8592
2017-09-11T08:32:57.960Z,7156
2017-09-11T08:33:58.699Z,10112
2017-09-11T08:34:59.504Z,9760
2017-09-11T08:36:00.323Z,8516
2017-09-11T08:37:01.364Z,11260
2017-09-11T08:38:02.090Z,13028
2017-09-11T08:39:02.824Z,8860
2017-09-11T08:40:03.575Z,9548
2017-09-11T08:41:04.337Z,11936
2017-09-11T08:42:05.498Z,13624
2017-09-11T08:43:06.227Z,14440
2017-09-11T08:44:07.026Z,18560
2017-09-11T08:45:07.850Z,15972
2017-09-11T08:46:08.595Z,13036
2017-09-11T08:47:09.762Z,14760
2017-09-11T08:48:10.491Z,13624
2017-09-11T08:49:11.221Z,13324
2017-09-11T08:50:11.958Z,15876
2017-09-11T08:51:12.694Z,18496
2017-09-11T08:52:13.823Z,21856
2017-09-11T08:53:14.618Z,22368
2017-09-11T08:54:15.382Z,24064
2017-09-11T08:55:16.132Z,23392
2017-09-11T08:56:16.910Z,19392
2017-09-11T08:57:17.652Z,20032
2017-09-11T08:58:18.388Z,23008
2017-09-11T08:59:19.114Z,22464
2017-09-11T09:00:19.924Z,23744
2017-09-11T09:01:21.044Z,25248
2017-09-11T09:02:21.823Z,25344
2017-09-11T09:03:22.559Z,25920
2017-09-11T09:04:23.243Z,27296
2017-09-11T09:05:23.976Z,28512
2017-09-11T09:06:25.146Z,28544
2017-09-11T09:07:25.898Z,27840
2017-09-11T09:08:26.659Z,26272
2017-09-11T09:09:27.392Z,25376
2017-09-11T09:10:28.119Z,25056
2017-09-11T09:11:29.064Z,24544
2017-09-11T09:12:29.799Z,25120
2017-09-11T09:13:30.533Z,30176
2017-09-11T09:14:31.330Z,35104
2017-09-11T09:15:32.065Z,35232
2017-09-11T09:16:33.103Z,33440
2017-09-11T09:17:33.849Z,35424
2017-09-11T09:18:34.589Z,31616
2017-09-11T09:19:35.405Z,28576
2017-09-11T09:20:36.133Z,23584
2017-09-11T09:21:37.244Z,23744
2017-09-11T09:22:37.971Z,28640
2017-09-11T09:23:38.793Z,39168
2017-09-11T09:24:39.525Z,90112
2017-09-11T09:25:40.309Z,35104
2017-09-11T09:26:41.305Z,29728
2017-09-11T09:27:42.113Z,27040
2017-09-11T09:28:42.854Z,27040
2017-09-11T09:29:43.594Z,28672
2017-09-11T09:30:44.335Z,25600
2017-09-11T09:31:45.435Z,23712
2017-09-11T09:32:46.181Z,56864
2017-09-11T09:33:46.924Z,22624
2017-09-11T09:34:47.674Z,24640
2017-09-11T09:35:48.404Z,22496
2017-09-11T09:36:49.553Z,24288
2017-09-11T09:37:50.302Z,44096
2017-09-11T09:38:51.095Z,42912
2017-09-11T09:39:51.889Z,90144
2017-09-11T09:40:52.634Z,77248
2017-09-11T09:41:53.807Z,14428
2017-09-11T09:42:54.592Z,21152
2017-09-11T09:43:55.390Z,30496
2017-09-11T09:44:56.132Z,26496
2017-09-11T09:45:56.853Z,20576
2017-09-11T09:46:57.963Z,26912
2017-09-11T09:47:58.705Z,33824
2017-09-11T09:48:59.549Z,41888
2017-09-11T09:50:00.255Z,69888
2017-09-11T09:51:01.054Z,22240
2017-09-11T09:52:01.794Z,14172
2017-09-11T09:53:02.525Z,15188
2017-09-11T09:54:03.279Z,15896
2017-09-11T09:55:04.077Z,16492
2017-09-11T09:56:04.874Z,19232
2017-09-11T09:57:05.976Z,20480
2017-09-11T09:58:06.757Z,19872
2017-09-11T09:59:07.553Z,21312
2017-09-11T10:00:08.307Z,25888
2017-09-11T10:01:09.038Z,26272
2017-09-11T10:02:10.190Z,22304
2017-09-11T10:03:10.957Z,21216
2017-09-11T10:04:11.730Z,23104
2017-09-11T10:05:12.480Z,17952
2017-09-11T10:06:13.276Z,15612
2017-09-11T10:07:14.324Z,18368
2017-09-11T10:08:15.065Z,48992
2017-09-11T10:09:15.860Z,23552
2017-09-11T10:10:16.590Z,24224
2017-09-11T10:11:17.339Z,25376
2017-09-11T10:12:18.433Z,26880
2017-09-11T10:13:19.230Z,21216
2017-09-11T10:14:19.963Z,21536
2017-09-11T10:15:20.706Z,26560
2017-09-11T10:16:21.433Z,25952
2017-09-11T10:17:22.171Z,23456
2017-09-11T10:18:22.931Z,26240
2017-09-11T10:19:23.740Z,52992
2017-09-11T10:20:24.490Z,86016
2017-09-11T10:21:25.548Z,48512
2017-09-11T10:22:26.280Z,35968
2017-09-11T10:23:27.021Z,88000
2017-09-11T10:24:27.764Z,80032
2017-09-11T10:25:28.560Z,32224
2017-09-11T10:26:29.497Z,83232
2017-09-11T10:27:30.231Z,42368
2017-09-11T10:28:30.985Z,60480
2017-09-11T10:29:31.817Z,44192
2017-09-11T10:30:32.555Z,24160
2017-09-11T10:31:33.648Z,62752
2017-09-11T10:32:34.400Z,26112
2017-09-11T10:33:35.132Z,30784
2017-09-11T10:34:35.870Z,28608
2017-09-11T10:35:36.651Z,18496
2017-09-11T10:36:37.746Z,16812
2017-09-11T10:37:38.510Z,26432
2017-09-11T10:38:39.240Z,26848
2017-09-11T10:39:39.977Z,24384
2017-09-11T10:40:40.784Z,40224
2017-09-11T10:41:41.825Z,68000
2017-09-11T10:42:42.577Z,90720
2017-09-11T10:43:43.314Z,90432
2017-09-11T10:44:44.105Z,23168
2017-09-11T10:45:44.843Z,28096
2017-09-11T10:46:45.833Z,24672
2017-09-11T10:47:46.574Z,22304
2017-09-11T10:48:47.301Z,21376
2017-09-11T10:49:48.105Z,25888
2017-09-11T10:50:48.845Z,29984
2017-09-11T10:51:49.954Z,87008
2017-09-11T10:52:50.718Z,72192
2017-09-11T10:53:51.518Z,30880
2017-09-11T10:54:52.338Z,37536
2017-09-11T10:55:53.135Z,54368
2017-09-11T10:56:54.324Z,76896
2017-09-11T10:57:55.058Z,72928
2017-09-11T10:58:55.806Z,73120
2017-09-11T10:59:56.551Z,71296
2017-09-11T11:00:57.291Z,76480
2017-09-11T11:01:58.262Z,79872
2017-09-11T11:02:59.056Z,78944
2017-09-11T11:03:59.793Z,79136
2017-09-11T11:05:00.535Z,79680
2017-09-11T11:06:01.296Z,77472
2017-09-11T11:07:02.409Z,72896
2017-09-11T11:08:03.201Z,64800
2017-09-11T11:09:03.943Z,74336
2017-09-11T11:10:04.685Z,74304
2017-09-11T11:11:05.485Z,47680
2017-09-11T11:12:06.524Z,78560
2017-09-11T11:13:07.265Z,86592
2017-09-11T11:14:08.083Z,29088
2017-09-11T11:15:08.839Z,30496
2017-09-11T11:16:09.632Z,34176
2017-09-11T11:17:10.692Z,23008
2017-09-11T11:18:11.459Z,19648
2017-09-11T11:19:12.207Z,13184
2017-09-11T11:20:13.032Z,11560
2017-09-11T11:21:13.800Z,35840
2017-09-11T11:22:14.849Z,26272
2017-09-11T11:23:15.661Z,25568
2017-09-11T11:24:16.463Z,25120
2017-09-11T11:25:17.206Z,28320
2017-09-11T11:26:17.942Z,29472
2017-09-11T11:27:19.029Z,63232
2017-09-11T11:28:19.762Z,30752
2017-09-11T11:29:20.499Z,20384
2017-09-11T11:30:21.243Z,17088
2017-09-11T11:31:22.033Z,20704
2017-09-11T11:32:23.120Z,46912
2017-09-11T11:33:23.881Z,98272
2017-09-11T11:34:24.605Z,99232
2017-09-11T11:35:25.362Z,88160
2017-09-11T11:36:26.166Z,85568
2017-09-11T11:37:27.386Z,80192
2017-09-11T11:38:28.201Z,77632
2017-09-11T11:39:28.942Z,79744
2017-09-11T11:40:29.762Z,81280
2017-09-11T11:41:30.543Z,81536
2017-09-11T11:42:31.593Z,77888
2017-09-11T11:43:32.343Z,71872
2017-09-11T11:44:33.070Z,68352
2017-09-11T11:45:33.826Z,68512
2017-09-11T11:46:34.550Z,69504
2017-09-11T11:47:35.480Z,73536
2017-09-11T11:48:36.223Z,78496
2017-09-11T11:49:36.961Z,48960
2017-09-11T11:50:37.703Z,75552
2017-09-11T11:51:38.444Z,74432
2017-09-11T11:52:39.542Z,75296
2017-09-11T11:53:40.347Z,75264
2017-09-11T11:54:41.181Z,75872
2017-09-11T11:55:41.999Z,33120
2017-09-11T11:56:42.843Z,21888
2017-09-11T11:57:43.984Z,21824
2017-09-11T11:58:44.724Z,42944
2017-09-11T11:59:45.460Z,27232
2017-09-11T12:00:46.208Z,23136
2017-09-11T12:01:46.986Z,23264
2017-09-11T12:02:48.089Z,39200
2017-09-11T12:03:48.832Z,85472
2017-09-11T12:04:49.570Z,23296
2017-09-11T12:05:50.314Z,86144
2017-09-11T12:06:51.051Z,26400
2017-09-11T12:07:52.059Z,79104
2017-09-11T12:08:52.811Z,73376
2017-09-11T12:09:53.559Z,47840
2017-09-11T12:10:54.305Z,17452
2017-09-11T12:11:55.069Z,50656
2017-09-11T12:12:56.269Z,77760
2017-09-11T12:13:57.023Z,24544
2017-09-11T12:14:57.804Z,22336
2017-09-11T12:15:58.553Z,17448
2017-09-11T12:16:59.280Z,16176
2017-09-11T12:18:00.315Z,14832
2017-09-11T12:19:01.068Z,14716
2017-09-11T12:20:01.877Z,15680
2017-09-11T12:21:02.674Z,13916
2017-09-11T12:22:03.477Z,12744
2017-09-11T12:23:04.620Z,14828
2017-09-11T12:24:05.370Z,15104
2017-09-11T12:25:06.113Z,13432
2017-09-11T12:26:06.900Z,12560
2017-09-11T12:27:07.642Z,13656
2017-09-11T12:28:08.657Z,14524
2017-09-11T12:29:09.468Z,16784
2017-09-11T12:30:10.289Z,20096
2017-09-11T12:31:11.029Z,22688
2017-09-11T12:32:11.850Z,27680
2017-09-11T12:33:12.933Z,84512
2017-09-11T12:34:13.669Z,35232
2017-09-11T12:35:14.475Z,31616
2017-09-11T12:36:15.275Z,69728
2017-09-11T12:37:16.015Z,83072
2017-09-11T12:38:16.846Z,78400
2017-09-11T12:39:17.647Z,26016
2017-09-11T12:40:18.375Z,23936
2017-09-11T12:41:19.122Z,18976
2017-09-11T12:42:19.854Z,26976
2017-09-11T12:43:20.901Z,21056
2017-09-11T12:44:21.691Z,16928
2017-09-11T12:45:22.438Z,14328
2017-09-11T12:46:23.250Z,16324
2017-09-11T12:47:24.000Z,14904
2017-09-11T12:48:24.813Z,12412
2017-09-11T12:49:25.549Z,11716
2017-09-11T12:50:26.293Z,11500
2017-09-11T12:51:27.354Z,9288
2017-09-11T12:52:28.095Z,6652
2017-09-11T12:53:28.903Z,6356
2017-09-11T12:54:29.722Z,10184
2017-09-11T12:55:30.504Z,15192
2017-09-11T12:56:31.693Z,18144
2017-09-11T12:57:32.444Z,19840
2017-09-11T12:58:33.251Z,22016
2017-09-11T12:59:34.070Z,24704
2017-09-11T13:00:34.805Z,27296
2017-09-11T13:01:35.904Z,29120
2017-09-11T13:02:36.652Z,31008
2017-09-11T13:03:37.406Z,32288
2017-09-11T13:04:38.087Z,34304
2017-09-11T13:05:38.835Z,34592
2017-09-11T13:06:39.973Z,35552
2017-09-11T13:07:40.779Z,37056
2017-09-11T13:08:41.524Z,40512
2017-09-11T13:09:42.243Z,36320
2017-09-11T13:10:42.986Z,29856
2017-09-11T13:11:44.060Z,23296
2017-09-11T13:12:44.869Z,26560
2017-09-11T13:13:45.649Z,25952
2017-09-11T13:14:46.444Z,24416
2017-09-11T13:15:47.183Z,23360
2017-09-11T13:16:48.325Z,24544
2017-09-11T13:17:49.076Z,24896
2017-09-11T13:18:49.893Z,24416
2017-09-11T13:19:50.626Z,27872
2017-09-11T13:20:51.353Z,28160
2017-09-11T13:21:52.384Z,22720
2017-09-11T13:22:53.130Z,23328
2017-09-11T13:23:53.923Z,20832
2017-09-11T13:24:54.657Z,17092
2017-09-11T13:25:55.401Z,16284
2017-09-11T13:26:56.503Z,15936
2017-09-11T13:27:57.241Z,19456
2017-09-11T13:28:58.054Z,30816
2017-09-11T13:29:58.793Z,14592
2017-09-11T13:30:59.529Z,12208
2017-09-11T13:32:00.475Z,13724
2017-09-11T13:33:01.299Z,15328
2017-09-11T13:34:02.081Z,12472
2017-09-11T13:35:02.824Z,15256
2017-09-11T13:36:03.562Z,11216
2017-09-11T13:37:04.654Z,20576
2017-09-11T13:38:05.403Z,11840
2017-09-11T13:39:06.200Z,14760
2017-09-11T13:40:06.947Z,12016
2017-09-11T13:41:07.679Z,18944
2017-09-11T13:42:08.626Z,15040
2017-09-11T13:43:09.433Z,12024
2017-09-11T13:44:10.208Z,12364
2017-09-11T13:45:10.951Z,10496
2017-09-11T13:46:11.791Z,10436
2017-09-11T13:47:12.689Z,13580
2017-09-11T13:48:13.424Z,13148
2017-09-11T13:49:14.161Z,10916
2017-09-11T13:50:14.976Z,18368
2017-09-11T13:51:15.704Z,49088